sensor_id;sensor_type;location;lat;lon;timestamp;temperature;humidity
19728;DHT22;10015;52.530;13.390;2024-01-30T00:02:15;5.30;99.90
19728;DHT22;10015;52.530;13.390;2024-01-30T00:04:43;5.30;99.90
19728;DHT22;10015;52.530;13.390;2024-01-30T00:07:09;5.20;99.90
19728;DHT22;10015;52.530;13.390;2024-01-30T00:09:37;5.20;99.90
19728;DHT22;10015;52.530;13.390;2024-01-30T00:12:08;5.20;99.90
19728;DHT22;10015;52.530;13.390;2024-01-30T00:14:40;5.20;99.90
19728;DHT22;10015;52.530;13.390;2024-01-30T00:17:25;5.20;99.90
19728;DHT22;10015;52.530;13.390;2024-01-30T00:19:52;5.30;99.90
19728;DHT22;10015;52.530;13.390;2024-01-30T00:22:18;5.30;99.90
19728;DHT22;10015;52.530;13.390;2024-01-30T00:24:45;5.20;99.90
19728;DHT22;10015;52.530;13.390;2024-01-30T00:27:12;5.10;99.90
19728;DHT22;10015;52.530;13.390;2024-01-30T00:29:38;5.00;99.90
19728;DHT22;10015;52.530;13.390;2024-01-30T00:32:04;5.10;99.90
19728;DHT22;10015;52.530;13.390;2024-01-30T00:34:30;5.00;99.90
19728;DHT22;10015;52.530;13.390;2024-01-30T00:36:56;5.00;99.90
19728;DHT22;10015;52.530;13.390;2024-01-30T00:39:22;4.90;99.90
19728;DHT22;10015;52.530;13.390;2024-01-30T00:41:49;4.80;99.90
19728;DHT22;10015;52.530;13.390;2024-01-30T00:44:15;4.80;99.90
19728;DHT22;10015;52.530;13.390;2024-01-30T00:46:41;4.90;99.90
19728;DHT22;10015;52.530;13.390;2024-01-30T00:49:07;4.80;99.90
19728;DHT22;10015;52.530;13.390;2024-01-30T00:51:33;4.90;99.90
19728;DHT22;10015;52.530;13.390;2024-01-30T00:53:58;4.90;99.90
19728;DHT22;10015;52.530;13.390;2024-01-30T00:56:24;4.80;99.90
19728;DHT22;10015;52.530;13.390;2024-01-30T00:58:50;4.90;99.90
19728;DHT22;10015;52.530;13.390;2024-01-30T01:01:18;5.00;99.90
19728;DHT22;10015;52.530;13.390;2024-01-30T01:03:43;4.90;99.90
19728;DHT22;10015;52.530;13.390;2024-01-30T01:06:09;4.80;99.90
19728;DHT22;10015;52.530;13.390;2024-01-30T01:08:36;4.80;99.90
19728;DHT22;10015;52.530;13.390;2024-01-30T01:11:02;4.80;99.90
19728;DHT22;10015;52.530;13.390;2024-01-30T01:13:29;4.60;99.90
19728;DHT22;10015;52.530;13.390;2024-01-30T01:15:56;4.50;99.90
19728;DHT22;10015;52.530;13.390;2024-01-30T01:18:22;4.50;99.90
19728;DHT22;10015;52.530;13.390;2024-01-30T01:20:48;4.40;99.90
19728;DHT22;10015;52.530;13.390;2024-01-30T01:23:15;4.40;99.90
19728;DHT22;10015;52.530;13.390;2024-01-30T01:25:41;4.40;99.90
19728;DHT22;10015;52.530;13.390;2024-01-30T01:28:07;4.40;99.90
19728;DHT22;10015;52.530;13.390;2024-01-30T01:30:33;4.50;99.90
19728;DHT22;10015;52.530;13.390;2024-01-30T01:32:59;4.50;99.90
19728;DHT22;10015;52.530;13.390;2024-01-30T01:35:27;4.50;99.90
19728;DHT22;10015;52.530;13.390;2024-01-30T01:37:54;4.60;99.90
19728;DHT22;10015;52.530;13.390;2024-01-30T01:40:25;4.50;99.90
19728;DHT22;10015;52.530;13.390;2024-01-30T01:42:52;4.40;99.90
19728;DHT22;10015;52.530;13.390;2024-01-30T01:45:19;4.40;99.90
19728;DHT22;10015;52.530;13.390;2024-01-30T01:47:47;4.40;99.90
19728;DHT22;10015;52.530;13.390;2024-01-30T01:50:16;4.30;99.90
19728;DHT22;10015;52.530;13.390;2024-01-30T01:52:45;4.40;99.90
19728;DHT22;10015;52.530;13.390;2024-01-30T01:55:13;4.40;99.90
19728;DHT22;10015;52.530;13.390;2024-01-30T01:57:41;4.40;99.90
19728;DHT22;10015;52.530;13.390;2024-01-30T02:00:08;4.50;99.90
19728;DHT22;10015;52.530;13.390;2024-01-30T02:02:36;4.40;99.90
19728;DHT22;10015;52.530;13.390;2024-01-30T02:05:03;4.40;99.90
19728;DHT22;10015;52.530;13.390;2024-01-30T02:07:29;4.50;99.90
19728;DHT22;10015;52.530;13.390;2024-01-30T02:09:55;4.60;99.90
19728;DHT22;10015;52.530;13.390;2024-01-30T02:12:21;4.60;99.90
19728;DHT22;10015;52.530;13.390;2024-01-30T02:14:48;4.50;99.90
19728;DHT22;10015;52.530;13.390;2024-01-30T02:17:16;4.30;99.90
19728;DHT22;10015;52.530;13.390;2024-01-30T02:19:42;4.30;99.90
19728;DHT22;10015;52.530;13.390;2024-01-30T02:22:09;4.20;99.90
19728;DHT22;10015;52.530;13.390;2024-01-30T02:24:35;4.30;99.90
19728;DHT22;10015;52.530;13.390;2024-01-30T02:27:01;4.20;99.90
19728;DHT22;10015;52.530;13.390;2024-01-30T02:29:27;4.10;99.90
19728;DHT22;10015;52.530;13.390;2024-01-30T02:31:52;4.20;99.90
19728;DHT22;10015;52.530;13.390;2024-01-30T02:34:20;4.10;99.90
19728;DHT22;10015;52.530;13.390;2024-01-30T02:36:46;4.00;99.90
19728;DHT22;10015;52.530;13.390;2024-01-30T02:39:12;4.10;99.90
19728;DHT22;10015;52.530;13.390;2024-01-30T02:41:38;4.10;99.90
19728;DHT22;10015;52.530;13.390;2024-01-30T02:44:04;4.10;99.90
19728;DHT22;10015;52.530;13.390;2024-01-30T02:46:30;4.20;99.90
19728;DHT22;10015;52.530;13.390;2024-01-30T02:48:57;4.40;99.90
19728;DHT22;10015;52.530;13.390;2024-01-30T02:51:23;4.50;99.90
19728;DHT22;10015;52.530;13.390;2024-01-30T02:53:49;4.50;99.90
19728;DHT22;10015;52.530;13.390;2024-01-30T02:56:16;4.40;99.90
19728;DHT22;10015;52.530;13.390;2024-01-30T02:58:41;4.40;99.90
19728;DHT22;10015;52.530;13.390;2024-01-30T03:01:08;4.30;99.90
19728;DHT22;10015;52.530;13.390;2024-01-30T03:03:34;4.30;99.90
19728;DHT22;10015;52.530;13.390;2024-01-30T03:06:01;4.40;99.90
19728;DHT22;10015;52.530;13.390;2024-01-30T03:08:27;4.40;99.90
19728;DHT22;10015;52.530;13.390;2024-01-30T03:10:53;4.60;99.90
19728;DHT22;10015;52.530;13.390;2024-01-30T03:13:21;4.50;99.90
19728;DHT22;10015;52.530;13.390;2024-01-30T03:15:49;4.50;99.90
19728;DHT22;10015;52.530;13.390;2024-01-30T03:18:14;4.60;99.90
19728;DHT22;10015;52.530;13.390;2024-01-30T03:20:40;4.50;99.90
19728;DHT22;10015;52.530;13.390;2024-01-30T03:23:08;4.40;99.90
19728;DHT22;10015;52.530;13.390;2024-01-30T03:25:33;4.20;99.90
19728;DHT22;10015;52.530;13.390;2024-01-30T03:28:00;4.10;99.90
19728;DHT22;10015;52.530;13.390;2024-01-30T03:30:26;4.20;99.90
19728;DHT22;10015;52.530;13.390;2024-01-30T03:32:52;4.20;99.90
19728;DHT22;10015;52.530;13.390;2024-01-30T03:35:19;4.20;99.90
19728;DHT22;10015;52.530;13.390;2024-01-30T03:37:45;4.30;99.90
19728;DHT22;10015;52.530;13.390;2024-01-30T03:40:11;4.30;99.90
19728;DHT22;10015;52.530;13.390;2024-01-30T03:42:37;4.20;99.90
19728;DHT22;10015;52.530;13.390;2024-01-30T03:45:03;4.00;99.90
19728;DHT22;10015;52.530;13.390;2024-01-30T03:47:30;4.10;99.90
19728;DHT22;10015;52.530;13.390;2024-01-30T03:49:56;4.10;99.90
19728;DHT22;10015;52.530;13.390;2024-01-30T03:52:22;4.10;99.90
19728;DHT22;10015;52.530;13.390;2024-01-30T03:54:47;4.10;99.90
19728;DHT22;10015;52.530;13.390;2024-01-30T03:57:14;4.20;99.90
19728;DHT22;10015;52.530;13.390;2024-01-30T03:59:44;4.10;99.90
19728;DHT22;10015;52.530;13.390;2024-01-30T04:02:11;4.20;99.90
19728;DHT22;10015;52.530;13.390;2024-01-30T04:04:38;4.10;99.90
19728;DHT22;10015;52.530;13.390;2024-01-30T04:07:03;4.10;99.90
19728;DHT22;10015;52.530;13.390;2024-01-30T04:09:29;3.90;99.90
19728;DHT22;10015;52.530;13.390;2024-01-30T04:11:55;3.80;99.90
19728;DHT22;10015;52.530;13.390;2024-01-30T04:14:21;3.80;99.90
19728;DHT22;10015;52.530;13.390;2024-01-30T04:16:47;3.70;99.90
19728;DHT22;10015;52.530;13.390;2024-01-30T04:19:13;3.70;99.90
19728;DHT22;10015;52.530;13.390;2024-01-30T04:21:39;3.80;99.90
19728;DHT22;10015;52.530;13.390;2024-01-30T04:24:05;3.90;99.90
19728;DHT22;10015;52.530;13.390;2024-01-30T04:26:31;3.90;99.90
19728;DHT22;10015;52.530;13.390;2024-01-30T04:28:57;3.90;99.90
19728;DHT22;10015;52.530;13.390;2024-01-30T04:31:23;4.00;99.90
19728;DHT22;10015;52.530;13.390;2024-01-30T04:33:49;4.00;99.90
19728;DHT22;10015;52.530;13.390;2024-01-30T04:36:15;4.00;99.90
19728;DHT22;10015;52.530;13.390;2024-01-30T04:38:41;4.00;99.90
19728;DHT22;10015;52.530;13.390;2024-01-30T04:41:07;4.10;99.90
19728;DHT22;10015;52.530;13.390;2024-01-30T04:43:33;4.10;99.90
19728;DHT22;10015;52.530;13.390;2024-01-30T04:45:59;4.20;99.90
19728;DHT22;10015;52.530;13.390;2024-01-30T04:48:25;4.30;99.90
19728;DHT22;10015;52.530;13.390;2024-01-30T04:50:50;4.20;99.90
19728;DHT22;10015;52.530;13.390;2024-01-30T04:53:16;4.10;99.90
19728;DHT22;10015;52.530;13.390;2024-01-30T04:55:42;4.00;99.90
19728;DHT22;10015;52.530;13.390;2024-01-30T04:58:08;4.00;99.90
19728;DHT22;10015;52.530;13.390;2024-01-30T05:00:34;4.00;99.90
19728;DHT22;10015;52.530;13.390;2024-01-30T05:03:01;4.00;99.90
19728;DHT22;10015;52.530;13.390;2024-01-30T05:05:26;3.90;99.90
19728;DHT22;10015;52.530;13.390;2024-01-30T05:07:52;3.80;99.90
19728;DHT22;10015;52.530;13.390;2024-01-30T05:10:18;3.80;99.90
19728;DHT22;10015;52.530;13.390;2024-01-30T05:12:44;3.70;99.90
19728;DHT22;10015;52.530;13.390;2024-01-30T05:15:10;3.80;99.90
19728;DHT22;10015;52.530;13.390;2024-01-30T05:17:36;3.90;99.90
19728;DHT22;10015;52.530;13.390;2024-01-30T05:20:02;3.80;99.90
19728;DHT22;10015;52.530;13.390;2024-01-30T05:22:29;3.70;99.90
19728;DHT22;10015;52.530;13.390;2024-01-30T05:24:54;3.80;99.90
19728;DHT22;10015;52.530;13.390;2024-01-30T05:27:20;3.90;99.90
19728;DHT22;10015;52.530;13.390;2024-01-30T05:29:46;3.90;99.90
19728;DHT22;10015;52.530;13.390;2024-01-30T05:32:12;3.90;99.90
19728;DHT22;10015;52.530;13.390;2024-01-30T05:34:38;3.80;99.90
19728;DHT22;10015;52.530;13.390;2024-01-30T05:37:04;3.80;99.90
19728;DHT22;10015;52.530;13.390;2024-01-30T05:39:30;3.80;99.90
19728;DHT22;10015;52.530;13.390;2024-01-30T05:41:58;3.80;99.90
19728;DHT22;10015;52.530;13.390;2024-01-30T05:44:24;3.90;99.90
19728;DHT22;10015;52.530;13.390;2024-01-30T05:46:50;4.00;99.90
19728;DHT22;10015;52.530;13.390;2024-01-30T05:49:16;4.00;99.90
19728;DHT22;10015;52.530;13.390;2024-01-30T05:51:42;3.90;99.90
19728;DHT22;10015;52.530;13.390;2024-01-30T05:54:08;3.80;99.90
19728;DHT22;10015;52.530;13.390;2024-01-30T05:56:34;3.80;99.90
19728;DHT22;10015;52.530;13.390;2024-01-30T05:59:00;3.90;99.90
19728;DHT22;10015;52.530;13.390;2024-01-30T06:01:26;4.00;99.90
19728;DHT22;10015;52.530;13.390;2024-01-30T06:03:52;3.90;99.90
19728;DHT22;10015;52.530;13.390;2024-01-30T06:06:18;4.00;99.90
19728;DHT22;10015;52.530;13.390;2024-01-30T06:08:44;3.90;99.90
19728;DHT22;10015;52.530;13.390;2024-01-30T06:11:11;4.00;99.90
19728;DHT22;10015;52.530;13.390;2024-01-30T06:13:37;3.90;99.90
19728;DHT22;10015;52.530;13.390;2024-01-30T06:16:04;3.90;99.90
19728;DHT22;10015;52.530;13.390;2024-01-30T06:18:30;3.90;99.90
19728;DHT22;10015;52.530;13.390;2024-01-30T06:20:57;4.00;99.90
19728;DHT22;10015;52.530;13.390;2024-01-30T06:23:23;4.00;99.90
19728;DHT22;10015;52.530;13.390;2024-01-30T06:25:49;3.90;99.90
19728;DHT22;10015;52.530;13.390;2024-01-30T06:28:15;4.00;99.90
19728;DHT22;10015;52.530;13.390;2024-01-30T06:30:41;3.90;99.90
19728;DHT22;10015;52.530;13.390;2024-01-30T06:33:06;3.90;99.90
19728;DHT22;10015;52.530;13.390;2024-01-30T06:35:32;3.90;99.90
19728;DHT22;10015;52.530;13.390;2024-01-30T06:37:58;3.80;99.90
19728;DHT22;10015;52.530;13.390;2024-01-30T06:40:24;3.80;99.90
19728;DHT22;10015;52.530;13.390;2024-01-30T06:42:50;4.00;99.90
19728;DHT22;10015;52.530;13.390;2024-01-30T06:45:16;4.00;99.90
19728;DHT22;10015;52.530;13.390;2024-01-30T06:47:42;3.90;99.90
19728;DHT22;10015;52.530;13.390;2024-01-30T06:50:08;3.90;99.90
19728;DHT22;10015;52.530;13.390;2024-01-30T06:52:34;3.90;99.90
19728;DHT22;10015;52.530;13.390;2024-01-30T06:55:00;3.90;99.90
19728;DHT22;10015;52.530;13.390;2024-01-30T06:57:26;3.90;99.90
19728;DHT22;10015;52.530;13.390;2024-01-30T06:59:54;3.90;99.90
19728;DHT22;10015;52.530;13.390;2024-01-30T07:02:21;3.90;99.90
19728;DHT22;10015;52.530;13.390;2024-01-30T07:04:47;3.90;99.90
19728;DHT22;10015;52.530;13.390;2024-01-30T07:07:13;4.00;99.90
19728;DHT22;10015;52.530;13.390;2024-01-30T07:09:40;3.90;99.90
19728;DHT22;10015;52.530;13.390;2024-01-30T07:12:07;3.80;99.90
19728;DHT22;10015;52.530;13.390;2024-01-30T07:14:33;3.90;99.90
19728;DHT22;10015;52.530;13.390;2024-01-30T07:16:59;4.00;99.90
19728;DHT22;10015;52.530;13.390;2024-01-30T07:19:25;3.90;99.90
19728;DHT22;10015;52.530;13.390;2024-01-30T07:21:51;3.90;99.90
19728;DHT22;10015;52.530;13.390;2024-01-30T07:24:17;3.90;99.90
19728;DHT22;10015;52.530;13.390;2024-01-30T07:26:43;4.00;99.90
19728;DHT22;10015;52.530;13.390;2024-01-30T07:29:09;3.90;99.90
19728;DHT22;10015;52.530;13.390;2024-01-30T07:31:35;4.00;99.90
19728;DHT22;10015;52.530;13.390;2024-01-30T07:34:00;4.10;99.90
19728;DHT22;10015;52.530;13.390;2024-01-30T07:36:26;4.00;99.90
19728;DHT22;10015;52.530;13.390;2024-01-30T07:38:52;4.00;99.90
19728;DHT22;10015;52.530;13.390;2024-01-30T07:41:20;4.00;99.90
19728;DHT22;10015;52.530;13.390;2024-01-30T07:43:46;4.10;99.90
19728;DHT22;10015;52.530;13.390;2024-01-30T07:46:11;4.20;99.90
19728;DHT22;10015;52.530;13.390;2024-01-30T07:48:37;4.30;99.90
19728;DHT22;10015;52.530;13.390;2024-01-30T07:51:03;4.20;99.90
19728;DHT22;10015;52.530;13.390;2024-01-30T07:53:30;4.40;99.90
19728;DHT22;10015;52.530;13.390;2024-01-30T07:55:55;4.30;99.90
19728;DHT22;10015;52.530;13.390;2024-01-30T07:58:21;4.30;99.90
19728;DHT22;10015;52.530;13.390;2024-01-30T08:00:49;4.40;99.90
19728;DHT22;10015;52.530;13.390;2024-01-30T08:03:17;4.40;99.90
19728;DHT22;10015;52.530;13.390;2024-01-30T08:05:44;4.40;99.90
19728;DHT22;10015;52.530;13.390;2024-01-30T08:08:10;4.40;99.90
19728;DHT22;10015;52.530;13.390;2024-01-30T08:10:36;4.40;99.90
19728;DHT22;10015;52.530;13.390;2024-01-30T08:13:02;4.40;99.90
19728;DHT22;10015;52.530;13.390;2024-01-30T08:15:28;4.40;99.90
19728;DHT22;10015;52.530;13.390;2024-01-30T08:17:54;4.40;99.90
19728;DHT22;10015;52.530;13.390;2024-01-30T08:20:24;4.50;99.90
19728;DHT22;10015;52.530;13.390;2024-01-30T08:22:51;4.50;99.90
19728;DHT22;10015;52.530;13.390;2024-01-30T08:25:17;4.60;99.90
19728;DHT22;10015;52.530;13.390;2024-01-30T08:27:43;4.60;99.90
19728;DHT22;10015;52.530;13.390;2024-01-30T08:30:09;4.80;99.90
19728;DHT22;10015;52.530;13.390;2024-01-30T08:32:35;4.90;99.90
19728;DHT22;10015;52.530;13.390;2024-01-30T08:35:01;4.90;99.90
19728;DHT22;10015;52.530;13.390;2024-01-30T08:37:29;5.00;99.90
19728;DHT22;10015;52.530;13.390;2024-01-30T08:39:55;5.00;99.90
19728;DHT22;10015;52.530;13.390;2024-01-30T08:42:22;5.00;99.90
19728;DHT22;10015;52.530;13.390;2024-01-30T08:44:51;4.90;99.90
19728;DHT22;10015;52.530;13.390;2024-01-30T08:47:18;5.00;99.90
19728;DHT22;10015;52.530;13.390;2024-01-30T08:49:45;5.00;99.90
19728;DHT22;10015;52.530;13.390;2024-01-30T08:52:11;5.00;99.90
19728;DHT22;10015;52.530;13.390;2024-01-30T08:54:37;5.00;99.90
19728;DHT22;10015;52.530;13.390;2024-01-30T08:57:03;5.20;99.90
19728;DHT22;10015;52.530;13.390;2024-01-30T08:59:30;5.30;99.90
19728;DHT22;10015;52.530;13.390;2024-01-30T09:01:56;5.40;99.90
19728;DHT22;10015;52.530;13.390;2024-01-30T09:04:23;5.40;99.90
19728;DHT22;10015;52.530;13.390;2024-01-30T09:06:49;5.50;99.90
19728;DHT22;10015;52.530;13.390;2024-01-30T09:09:16;5.70;99.90
19728;DHT22;10015;52.530;13.390;2024-01-30T09:11:42;5.70;99.90
19728;DHT22;10015;52.530;13.390;2024-01-30T09:14:09;5.80;99.90
19728;DHT22;10015;52.530;13.390;2024-01-30T09:16:35;5.90;99.90
19728;DHT22;10015;52.530;13.390;2024-01-30T09:19:02;6.00;99.90
19728;DHT22;10015;52.530;13.390;2024-01-30T09:21:28;6.10;99.90
19728;DHT22;10015;52.530;13.390;2024-01-30T09:24:02;6.20;99.90
19728;DHT22;10015;52.530;13.390;2024-01-30T09:26:31;6.30;99.90
19728;DHT22;10015;52.530;13.390;2024-01-30T09:28:57;6.50;99.90
19728;DHT22;10015;52.530;13.390;2024-01-30T09:31:23;6.50;99.90
19728;DHT22;10015;52.530;13.390;2024-01-30T09:33:49;6.50;99.90
19728;DHT22;10015;52.530;13.390;2024-01-30T09:36:22;6.50;99.90
19728;DHT22;10015;52.530;13.390;2024-01-30T09:39:01;6.50;99.90
19728;DHT22;10015;52.530;13.390;2024-01-30T09:41:30;6.50;99.90
19728;DHT22;10015;52.530;13.390;2024-01-30T09:44:04;6.70;99.90
19728;DHT22;10015;52.530;13.390;2024-01-30T09:47:11;6.80;99.90
19728;DHT22;10015;52.530;13.390;2024-01-30T09:50:06;6.80;99.90
19728;DHT22;10015;52.530;13.390;2024-01-30T09:52:44;6.50;99.90
19728;DHT22;10015;52.530;13.390;2024-01-30T09:55:19;6.50;99.90
19728;DHT22;10015;52.530;13.390;2024-01-30T09:57:51;6.60;99.90
19728;DHT22;10015;52.530;13.390;2024-01-30T10:00:44;6.80;99.90
19728;DHT22;10015;52.530;13.390;2024-01-30T10:03:21;7.00;99.90
19728;DHT22;10015;52.530;13.390;2024-01-30T10:05:58;6.90;99.90
19728;DHT22;10015;52.530;13.390;2024-01-30T10:08:27;7.00;99.90
19728;DHT22;10015;52.530;13.390;2024-01-30T10:11:03;7.00;99.90
19728;DHT22;10015;52.530;13.390;2024-01-30T10:13:32;7.20;99.90
19728;DHT22;10015;52.530;13.390;2024-01-30T10:16:09;7.20;99.90
19728;DHT22;10015;52.530;13.390;2024-01-30T10:19:21;7.20;99.90
19728;DHT22;10015;52.530;13.390;2024-01-30T10:22:10;7.20;99.90
19728;DHT22;10015;52.530;13.390;2024-01-30T10:24:54;7.30;99.90
19728;DHT22;10015;52.530;13.390;2024-01-30T10:27:41;7.30;99.90
19728;DHT22;10015;52.530;13.390;2024-01-30T10:30:16;7.50;99.90
19728;DHT22;10015;52.530;13.390;2024-01-30T10:32:56;7.30;99.90
19728;DHT22;10015;52.530;13.390;2024-01-30T10:35:46;7.30;99.90
19728;DHT22;10015;52.530;13.390;2024-01-30T10:38:51;7.30;99.90
19728;DHT22;10015;52.530;13.390;2024-01-30T10:41:27;7.40;99.90
19728;DHT22;10015;52.530;13.390;2024-01-30T10:44:03;7.40;99.90
19728;DHT22;10015;52.530;13.390;2024-01-30T11:11:28;7.80;99.90
19728;DHT22;10015;52.530;13.390;2024-01-30T11:13:55;7.70;99.90
19728;DHT22;10015;52.530;13.390;2024-01-30T11:16:21;7.70;99.90
19728;DHT22;10015;52.530;13.390;2024-01-30T11:18:50;7.60;99.90
19728;DHT22;10015;52.530;13.390;2024-01-30T11:21:18;7.50;99.90
19728;DHT22;10015;52.530;13.390;2024-01-30T11:23:44;7.60;99.90
19728;DHT22;10015;52.530;13.390;2024-01-30T11:26:13;7.60;99.90
19728;DHT22;10015;52.530;13.390;2024-01-30T11:28:39;7.60;99.90
19728;DHT22;10015;52.530;13.390;2024-01-30T11:31:06;7.70;99.90
19728;DHT22;10015;52.530;13.390;2024-01-30T11:33:35;7.80;99.90
19728;DHT22;10015;52.530;13.390;2024-01-30T11:36:01;7.90;99.90
19728;DHT22;10015;52.530;13.390;2024-01-30T11:38:28;8.00;99.90
19728;DHT22;10015;52.530;13.390;2024-01-30T11:40:55;7.90;99.90
19728;DHT22;10015;52.530;13.390;2024-01-30T11:43:22;8.00;99.90
19728;DHT22;10015;52.530;13.390;2024-01-30T11:45:50;8.00;99.90
19728;DHT22;10015;52.530;13.390;2024-01-30T11:48:20;8.10;99.90
19728;DHT22;10015;52.530;13.390;2024-01-30T11:50:46;8.20;99.90
19728;DHT22;10015;52.530;13.390;2024-01-30T11:53:13;8.20;99.90
19728;DHT22;10015;52.530;13.390;2024-01-30T11:56:09;8.20;99.90
19728;DHT22;10015;52.530;13.390;2024-01-30T11:58:42;8.30;99.90
19728;DHT22;10015;52.530;13.390;2024-01-30T12:01:40;8.20;99.90
19728;DHT22;10015;52.530;13.390;2024-01-30T12:07:54;8.30;99.90
19728;DHT22;10015;52.530;13.390;2024-01-30T12:10:20;8.40;99.90
19728;DHT22;10015;52.530;13.390;2024-01-30T12:12:49;8.60;99.90
19728;DHT22;10015;52.530;13.390;2024-01-30T12:15:16;8.90;99.90
19728;DHT22;10015;52.530;13.390;2024-01-30T12:17:43;8.70;99.90
19728;DHT22;10015;52.530;13.390;2024-01-30T12:20:20;8.60;99.90
19728;DHT22;10015;52.530;13.390;2024-01-30T12:22:51;8.60;99.90
19728;DHT22;10015;52.530;13.390;2024-01-30T12:25:31;8.70;99.90
19728;DHT22;10015;52.530;13.390;2024-01-30T12:28:19;8.80;99.90
19728;DHT22;10015;52.530;13.390;2024-01-30T12:31:31;8.90;99.90
19728;DHT22;10015;52.530;13.390;2024-01-30T12:34:01;8.90;99.90
19728;DHT22;10015;52.530;13.390;2024-01-30T12:36:30;8.80;99.90
19728;DHT22;10015;52.530;13.390;2024-01-30T12:39:11;8.80;99.90
19728;DHT22;10015;52.530;13.390;2024-01-30T12:41:40;8.80;99.90
19728;DHT22;10015;52.530;13.390;2024-01-30T12:44:06;8.80;99.90
19728;DHT22;10015;52.530;13.390;2024-01-30T12:46:34;8.90;99.90
19728;DHT22;10015;52.530;13.390;2024-01-30T12:49:00;8.80;99.90
19728;DHT22;10015;52.530;13.390;2024-01-30T12:51:26;8.80;99.90
19728;DHT22;10015;52.530;13.390;2024-01-30T12:53:52;8.80;99.90
19728;DHT22;10015;52.530;13.390;2024-01-30T12:56:18;8.70;99.90
19728;DHT22;10015;52.530;13.390;2024-01-30T12:58:44;8.80;99.90
19728;DHT22;10015;52.530;13.390;2024-01-30T13:01:10;8.80;99.90
19728;DHT22;10015;52.530;13.390;2024-01-30T13:03:37;8.70;99.90
19728;DHT22;10015;52.530;13.390;2024-01-30T13:06:03;8.80;99.90
19728;DHT22;10015;52.530;13.390;2024-01-30T13:08:31;8.90;99.90
19728;DHT22;10015;52.530;13.390;2024-01-30T13:10:57;9.00;99.90
19728;DHT22;10015;52.530;13.390;2024-01-30T13:13:24;9.00;99.90
19728;DHT22;10015;52.530;13.390;2024-01-30T13:15:50;9.00;99.90
19728;DHT22;10015;52.530;13.390;2024-01-30T13:18:16;9.00;99.90
19728;DHT22;10015;52.530;13.390;2024-01-30T13:20:46;8.90;99.90
19728;DHT22;10015;52.530;13.390;2024-01-30T13:23:15;8.80;99.90
19728;DHT22;10015;52.530;13.390;2024-01-30T13:25:41;8.90;99.90
19728;DHT22;10015;52.530;13.390;2024-01-30T13:28:08;8.90;99.90
19728;DHT22;10015;52.530;13.390;2024-01-30T13:30:34;8.90;99.90
19728;DHT22;10015;52.530;13.390;2024-01-30T13:33:01;8.80;99.90
19728;DHT22;10015;52.530;13.390;2024-01-30T13:35:29;8.70;99.90
19728;DHT22;10015;52.530;13.390;2024-01-30T13:37:55;8.60;99.90
19728;DHT22;10015;52.530;13.390;2024-01-30T13:40:22;8.60;99.90
19728;DHT22;10015;52.530;13.390;2024-01-30T13:42:51;8.70;99.90
19728;DHT22;10015;52.530;13.390;2024-01-30T13:45:18;8.70;99.90
19728;DHT22;10015;52.530;13.390;2024-01-30T13:47:45;8.90;99.90
19728;DHT22;10015;52.530;13.390;2024-01-30T13:50:12;8.90;99.90
19728;DHT22;10015;52.530;13.390;2024-01-30T13:52:41;9.00;99.90
19728;DHT22;10015;52.530;13.390;2024-01-30T13:55:07;9.00;99.90
19728;DHT22;10015;52.530;13.390;2024-01-30T13:57:33;8.90;99.90
19728;DHT22;10015;52.530;13.390;2024-01-30T14:00:03;9.00;99.90
19728;DHT22;10015;52.530;13.390;2024-01-30T14:02:39;8.90;99.90
19728;DHT22;10015;52.530;13.390;2024-01-30T14:05:05;8.90;99.90
19728;DHT22;10015;52.530;13.390;2024-01-30T14:07:32;8.90;99.90
19728;DHT22;10015;52.530;13.390;2024-01-30T14:09:58;8.80;99.90
19728;DHT22;10015;52.530;13.390;2024-01-30T14:12:24;9.00;99.90
19728;DHT22;10015;52.530;13.390;2024-01-30T14:14:51;8.90;99.90
19728;DHT22;10015;52.530;13.390;2024-01-30T14:17:17;8.90;99.90
19728;DHT22;10015;52.530;13.390;2024-01-30T14:19:43;8.90;99.90
19728;DHT22;10015;52.530;13.390;2024-01-30T14:22:09;8.90;99.90
19728;DHT22;10015;52.530;13.390;2024-01-30T14:24:38;8.90;99.90
19728;DHT22;10015;52.530;13.390;2024-01-30T14:27:05;8.80;99.90
19728;DHT22;10015;52.530;13.390;2024-01-30T14:29:31;8.70;99.90
19728;DHT22;10015;52.530;13.390;2024-01-30T14:31:57;8.80;99.90
19728;DHT22;10015;52.530;13.390;2024-01-30T14:34:23;8.80;99.90
19728;DHT22;10015;52.530;13.390;2024-01-30T14:36:50;8.80;99.90
19728;DHT22;10015;52.530;13.390;2024-01-30T14:39:16;8.70;99.90
19728;DHT22;10015;52.530;13.390;2024-01-30T14:41:44;8.70;99.90
19728;DHT22;10015;52.530;13.390;2024-01-30T14:44:10;8.80;99.90
19728;DHT22;10015;52.530;13.390;2024-01-30T14:46:38;8.80;99.90
19728;DHT22;10015;52.530;13.390;2024-01-30T14:49:05;8.90;99.90
19728;DHT22;10015;52.530;13.390;2024-01-30T14:51:32;8.90;99.90
19728;DHT22;10015;52.530;13.390;2024-01-30T14:54:01;8.80;99.90
19728;DHT22;10015;52.530;13.390;2024-01-30T14:56:27;8.80;99.90
19728;DHT22;10015;52.530;13.390;2024-01-30T14:58:53;8.70;99.90
19728;DHT22;10015;52.530;13.390;2024-01-30T15:01:20;8.70;99.90
19728;DHT22;10015;52.530;13.390;2024-01-30T15:03:46;8.70;99.90
19728;DHT22;10015;52.530;13.390;2024-01-30T15:06:13;8.70;99.90
19728;DHT22;10015;52.530;13.390;2024-01-30T15:08:38;8.70;99.90
19728;DHT22;10015;52.530;13.390;2024-01-30T15:11:05;8.60;99.90
19728;DHT22;10015;52.530;13.390;2024-01-30T15:13:31;8.60;99.90
19728;DHT22;10015;52.530;13.390;2024-01-30T15:15:57;8.70;99.90
19728;DHT22;10015;52.530;13.390;2024-01-30T15:18:23;8.70;99.90
19728;DHT22;10015;52.530;13.390;2024-01-30T15:20:52;8.70;99.90
19728;DHT22;10015;52.530;13.390;2024-01-30T15:23:18;8.70;99.90
19728;DHT22;10015;52.530;13.390;2024-01-30T15:25:45;8.60;99.90
19728;DHT22;10015;52.530;13.390;2024-01-30T15:28:11;8.60;99.90
19728;DHT22;10015;52.530;13.390;2024-01-30T15:30:39;8.60;99.90
19728;DHT22;10015;52.530;13.390;2024-01-30T15:33:05;8.60;99.90
19728;DHT22;10015;52.530;13.390;2024-01-30T15:35:31;8.70;99.90
19728;DHT22;10015;52.530;13.390;2024-01-30T15:37:57;8.70;99.90
19728;DHT22;10015;52.530;13.390;2024-01-30T15:40:24;8.80;99.90
19728;DHT22;10015;52.530;13.390;2024-01-30T15:42:50;8.80;99.90
19728;DHT22;10015;52.530;13.390;2024-01-30T15:45:17;8.80;99.90
19728;DHT22;10015;52.530;13.390;2024-01-30T15:47:43;8.80;99.90
19728;DHT22;10015;52.530;13.390;2024-01-30T15:50:12;8.80;99.90
19728;DHT22;10015;52.530;13.390;2024-01-30T15:52:38;8.80;99.90
19728;DHT22;10015;52.530;13.390;2024-01-30T15:55:04;8.70;99.90
19728;DHT22;10015;52.530;13.390;2024-01-30T15:57:34;8.70;99.90
19728;DHT22;10015;52.530;13.390;2024-01-30T16:00:00;8.70;99.90
19728;DHT22;10015;52.530;13.390;2024-01-30T16:02:27;8.50;99.90
19728;DHT22;10015;52.530;13.390;2024-01-30T16:04:54;8.50;99.90